createdAt,value
2022-08-17T00:00:44.061Z,100.00
2022-08-17T00:03:22.274Z,100.00
2022-08-17T00:06:07.736Z,100.00
2022-08-17T00:08:42.012Z,100.00
2022-08-17T00:11:14.438Z,100.00
2022-08-17T00:13:55.930Z,100.00
2022-08-17T00:16:56.436Z,100.00
2022-08-17T00:19:23.140Z,100.00
2022-08-17T00:22:32.214Z,100.00
2022-08-17T00:24:44.107Z,100.00
2022-08-17T00:27:12.266Z,100.00
2022-08-17T00:29:40.663Z,100.00
2022-08-17T00:33:14.716Z,100.00
2022-08-17T00:34:56.972Z,100.00
2022-08-17T00:37:25.079Z,100.00
2022-08-17T00:39:53.220Z,100.00
2022-08-17T00:42:21.414Z,100.00
2022-08-17T00:44:49.656Z,100.00
2022-08-17T00:47:17.932Z,100.00
2022-08-17T00:49:46.210Z,100.00
2022-08-17T00:52:20.354Z,100.00
2022-08-17T00:54:51.900Z,100.00
2022-08-17T00:57:36.852Z,100.00
2022-08-17T01:00:32.763Z,100.00
2022-08-17T01:03:08.610Z,100.00
2022-08-17T01:05:42.239Z,100.00
2022-08-17T01:08:14.032Z,100.00
2022-08-17T01:10:59.865Z,100.00
2022-08-17T01:13:41.244Z,100.00
2022-08-17T01:16:19.863Z,100.00
2022-08-17T01:18:50.971Z,100.00
2022-08-17T01:21:31.463Z,100.00
2022-08-17T01:24:00.692Z,100.00
2022-08-17T01:26:31.659Z,100.00
2022-08-17T01:29:01.648Z,100.00
2022-08-17T01:31:46.119Z,100.00
2022-08-17T01:34:16.395Z,100.00
2022-08-17T01:36:47.383Z,100.00
2022-08-17T01:39:25.100Z,100.00
2022-08-17T01:41:58.734Z,100.00
2022-08-17T01:44:28.162Z,100.00
2022-08-17T01:46:56.319Z,100.00
2022-08-17T01:49:24.439Z,100.00
2022-08-17T01:51:52.664Z,100.00
2022-08-17T01:54:22.262Z,100.00
2022-08-17T01:56:52.284Z,100.00
2022-08-17T01:59:20.626Z,100.00
2022-08-17T02:01:49.359Z,100.00
2022-08-17T02:04:17.507Z,100.00
2022-08-17T02:06:53.715Z,100.00
2022-08-17T02:09:26.284Z,100.00
2022-08-17T02:12:39.469Z,100.00
2022-08-17T02:14:51.051Z,100.00
2022-08-17T02:17:19.179Z,100.00
2022-08-17T02:19:47.326Z,100.00
2022-08-17T02:22:15.874Z,100.00
2022-08-17T02:24:59.964Z,100.00
2022-08-17T02:27:30.644Z,100.00
2022-08-17T02:29:58.913Z,100.00
2022-08-17T02:32:28.606Z,100.00
2022-08-17T02:34:58.101Z,100.00
2022-08-17T02:37:28.403Z,100.00
2022-08-17T02:39:58.679Z,100.00
2022-08-17T02:42:34.315Z,100.00
2022-08-17T02:45:05.972Z,100.00
2022-08-17T02:47:34.963Z,100.00
2022-08-17T02:50:04.388Z,100.00
2022-08-17T02:52:43.238Z,100.00
2022-08-17T02:55:20.937Z,100.00
2022-08-17T02:57:50.026Z,100.00
2022-08-17T03:00:29.151Z,100.00
2022-08-17T03:02:57.585Z,100.00
2022-08-17T03:05:27.966Z,100.00
2022-08-17T03:07:56.871Z,100.00
2022-08-17T03:10:25.679Z,100.00
2022-08-17T03:12:54.667Z,100.00
2022-08-17T03:15:26.193Z,100.00
2022-08-17T03:17:55.742Z,100.00
2022-08-17T03:20:25.739Z,100.00
2022-08-17T03:22:56.151Z,100.00
2022-08-17T03:25:34.529Z,100.00
2022-08-17T03:28:04.317Z,100.00
2022-08-17T03:30:33.275Z,100.00
2022-08-17T03:33:04.241Z,100.00
2022-08-17T03:35:35.018Z,100.00
2022-08-17T03:38:04.262Z,100.00
2022-08-17T03:40:34.585Z,100.00
2022-08-17T03:43:22.876Z,100.00
2022-08-17T03:46:19.277Z,100.00
2022-08-17T03:49:14.425Z,100.00
2022-08-17T03:52:01.519Z,100.00
2022-08-17T03:54:48.520Z,100.00
2022-08-17T03:57:16.783Z,100.00
2022-08-17T03:59:45.340Z,100.00
2022-08-17T04:02:21.720Z,100.00
2022-08-17T04:04:54.329Z,100.00
2022-08-17T04:07:24.913Z,100.00
2022-08-17T04:09:53.242Z,100.00
2022-08-17T04:12:23.758Z,100.00
2022-08-17T04:14:54.661Z,100.00
2022-08-17T04:17:26.426Z,100.00
2022-08-17T04:19:55.548Z,100.00
2022-08-17T04:22:30.461Z,100.00
2022-08-17T04:25:15.510Z,100.00
2022-08-17T04:27:43.624Z,100.00
2022-08-17T04:30:13.433Z,100.00
2022-08-17T04:33:10.488Z,100.00
2022-08-17T04:35:50.271Z,100.00
2022-08-17T04:38:22.392Z,100.00
2022-08-17T04:41:10.985Z,100.00
2022-08-17T04:43:40.980Z,100.00
2022-08-17T04:46:12.568Z,100.00
2022-08-17T04:48:43.706Z,100.00
2022-08-17T04:51:20.138Z,100.00
2022-08-17T04:53:53.975Z,100.00
2022-08-17T04:56:26.069Z,100.00
2022-08-17T04:58:58.269Z,100.00
2022-08-17T05:01:29.673Z,100.00
2022-08-17T05:04:00.315Z,100.00
2022-08-17T05:06:49.746Z,100.00
2022-08-17T05:09:18.815Z,100.00
2022-08-17T05:11:47.441Z,100.00
2022-08-17T05:14:15.692Z,100.00
2022-08-17T05:16:46.006Z,100.00
2022-08-17T05:19:14.203Z,100.00
2022-08-17T05:21:42.345Z,100.00
2022-08-17T05:24:16.743Z,100.00
2022-08-17T05:27:03.853Z,100.00
2022-08-17T05:29:35.981Z,100.00
2022-08-17T05:32:39.173Z,100.00
2022-08-17T05:35:00.636Z,100.00
2022-08-17T05:37:29.004Z,100.00
2022-08-17T05:39:57.273Z,100.00
2022-08-17T05:42:25.466Z,100.00
2022-08-17T05:44:58.075Z,100.00
2022-08-17T05:47:27.448Z,100.00
2022-08-17T05:49:55.716Z,100.00
2022-08-17T05:52:38.764Z,100.00
2022-08-17T05:55:14.551Z,100.00
2022-08-17T05:58:00.471Z,100.00
2022-08-17T06:00:42.171Z,100.00
2022-08-17T06:03:25.177Z,100.00
2022-08-17T06:06:22.387Z,100.00
2022-08-17T06:09:15.090Z,100.00
2022-08-17T06:11:54.242Z,100.00
2022-08-17T06:15:02.050Z,100.00
2022-08-17T06:17:31.237Z,100.00
2022-08-17T06:20:06.565Z,100.00
2022-08-17T06:22:46.210Z,100.00
2022-08-17T06:25:38.947Z,100.00
2022-08-17T06:28:16.414Z,100.00
2022-08-17T06:30:59.484Z,100.00
2022-08-17T06:33:34.512Z,100.00
2022-08-17T06:36:17.676Z,100.00
2022-08-17T06:38:50.002Z,100.00
2022-08-17T06:41:45.742Z,100.00
2022-08-17T06:44:50.902Z,100.00
2022-08-17T06:47:29.573Z,100.00
2022-08-17T06:50:07.759Z,100.00
2022-08-17T06:52:50.124Z,100.00
2022-08-17T06:55:34.439Z,100.00
2022-08-17T06:58:15.969Z,100.00
2022-08-17T07:00:47.880Z,100.00
2022-08-17T07:03:55.833Z,100.00
2022-08-17T07:06:38.617Z,100.00
2022-08-17T07:09:17.490Z,100.00
2022-08-17T07:11:53.285Z,100.00
2022-08-17T07:14:39.688Z,100.00
2022-08-17T07:17:11.216Z,100.00
2022-08-17T07:19:41.442Z,100.00
2022-08-17T07:22:21.320Z,100.00
2022-08-17T07:24:57.385Z,100.00
2022-08-17T07:27:38.207Z,100.00
2022-08-17T07:30:10.291Z,100.00
2022-08-17T07:32:47.621Z,100.00
2022-08-17T07:35:22.237Z,100.00
2022-08-17T07:38:25.859Z,100.00
2022-08-17T07:41:05.161Z,100.00
2022-08-17T07:43:39.513Z,100.00
2022-08-17T07:46:37.001Z,100.00
2022-08-17T07:49:08.459Z,100.00
2022-08-17T07:51:40.954Z,100.00
2022-08-17T07:54:22.758Z,100.00
2022-08-17T07:57:29.985Z,100.00
2022-08-17T08:00:01.659Z,100.00
2022-08-17T08:02:42.402Z,100.00
2022-08-17T08:05:13.368Z,100.00
2022-08-17T08:08:22.648Z,100.00
2022-08-17T08:11:25.268Z,100.00
2022-08-17T08:13:53.435Z,100.00
2022-08-17T08:16:25.911Z,100.00
2022-08-17T08:18:58.126Z,100.00
2022-08-17T08:21:44.966Z,100.00
2022-08-17T08:24:43.870Z,100.00
2022-08-17T08:27:58.084Z,100.00
2022-08-17T08:30:28.361Z,100.00
2022-08-17T08:33:24.121Z,100.00
2022-08-17T08:36:00.127Z,100.00
2022-08-17T08:38:49.698Z,100.00
2022-08-17T08:41:36.032Z,100.00
2022-08-17T08:45:00.064Z,100.00
2022-08-17T08:47:41.687Z,100.00
2022-08-17T08:50:37.620Z,100.00
2022-08-17T08:53:21.471Z,100.00
2022-08-17T08:55:55.967Z,100.00
2022-08-17T08:58:50.885Z,100.00
2022-08-17T09:01:30.284Z,100.00
2022-08-17T09:04:24.108Z,100.00
2022-08-17T09:07:31.459Z,100.00
2022-08-17T09:10:03.675Z,100.00
2022-08-17T09:12:31.744Z,100.00
2022-08-17T09:15:12.995Z,100.00
2022-08-17T09:18:14.580Z,100.00
2022-08-17T09:21:00.509Z,100.00
2022-08-17T09:23:36.442Z,100.00
2022-08-17T09:26:24.335Z,100.00
2022-08-17T09:28:59.200Z,100.00
2022-08-17T09:31:49.269Z,100.00
2022-08-17T09:34:28.185Z,100.00
2022-08-17T09:37:20.740Z,100.00
2022-08-17T09:40:23.122Z,100.00
2022-08-17T09:43:10.250Z,100.00
2022-08-17T09:46:04.237Z,100.00
2022-08-17T09:48:36.107Z,100.00
2022-08-17T09:51:09.773Z,100.00
2022-08-17T09:53:39.780Z,100.00
2022-08-17T09:56:41.064Z,100.00
2022-08-17T09:59:18.074Z,100.00
2022-08-17T10:02:25.328Z,100.00
2022-08-17T10:05:05.516Z,88.60
2022-08-17T10:08:28.833Z,84.80
2022-08-17T10:10:59.056Z,87.40
2022-08-17T10:13:28.189Z,88.58
2022-08-17T10:16:24.268Z,88.85
2022-08-17T10:19:05.424Z,92.38
2022-08-17T10:22:00.976Z,92.81
2022-08-17T10:25:22.749Z,86.31
2022-08-17T10:27:58.311Z,75.46
2022-08-17T10:30:31.577Z,74.24
2022-08-17T10:33:15.742Z,74.82
2022-08-17T10:35:59.126Z,70.87
2022-08-17T10:38:39.359Z,67.31
2022-08-17T10:41:24.301Z,61.66
2022-08-17T10:44:39.722Z,62.94
2022-08-17T10:47:15.472Z,62.54
2022-08-17T10:49:52.296Z,64.68
2022-08-17T10:52:20.394Z,68.12
2022-08-17T10:55:16.333Z,66.50
2022-08-17T10:57:50.360Z,68.43
2022-08-17T11:00:25.608Z,66.03
2022-08-17T11:02:58.050Z,62.66
2022-08-17T11:05:43.754Z,63.44
2022-08-17T11:08:40.073Z,65.64
2022-08-17T11:11:36.045Z,66.25
2022-08-17T11:14:47.459Z,63.90
2022-08-17T11:17:50.898Z,63.12
2022-08-17T11:20:38.872Z,62.13
2022-08-17T11:23:31.600Z,64.23
2022-08-17T11:26:04.536Z,67.26
2022-08-17T11:28:45.499Z,64.81
2022-08-17T11:31:38.417Z,60.33
2022-08-17T11:34:26.631Z,55.87
2022-08-17T11:37:21.076Z,56.32
2022-08-17T11:40:04.838Z,58.40
2022-08-17T11:43:08.333Z,64.30
2022-08-17T11:45:45.448Z,72.94
2022-08-17T11:48:37.050Z,73.46
2022-08-17T11:51:33.930Z,69.16
2022-08-17T11:54:30.529Z,61.17
2022-08-17T11:56:51.938Z,57.04
2022-08-17T11:59:44.958Z,55.62
2022-08-17T12:02:31.631Z,55.82
2022-08-17T12:05:14.451Z,54.52
2022-08-17T12:08:21.762Z,55.23
2022-08-17T12:10:59.639Z,54.57
2022-08-17T12:13:38.737Z,53.01
2022-08-17T12:16:10.127Z,50.51
2022-08-17T12:18:42.147Z,47.78
2022-08-17T12:21:42.633Z,49.79
2022-08-17T12:24:35.763Z,50.04
2022-08-17T12:27:06.972Z,49.78
2022-08-17T12:29:38.713Z,48.95
2022-08-17T12:32:17.686Z,49.89
2022-08-17T12:34:47.845Z,50.94
2022-08-17T12:37:31.224Z,51.25
2022-08-17T12:40:04.851Z,49.97
2022-08-17T12:42:37.635Z,51.34
2022-08-17T12:45:23.938Z,51.52
2022-08-17T12:48:23.385Z,53.13
2022-08-17T12:50:59.002Z,51.95
2022-08-17T12:53:31.845Z,52.34
2022-08-17T12:56:00.525Z,51.65
2022-08-17T12:58:32.765Z,51.64
2022-08-17T13:01:06.238Z,51.92
2022-08-17T13:03:40.790Z,50.53
2022-08-17T13:06:13.160Z,48.62
2022-08-17T13:08:50.898Z,44.74
2022-08-17T13:11:24.928Z,43.99
2022-08-17T13:13:56.992Z,44.96
2022-08-17T13:16:33.606Z,45.41
2022-08-17T13:19:15.269Z,45.25
2022-08-17T13:21:52.813Z,45.07
2022-08-17T13:24:26.009Z,47.38
2022-08-17T13:27:13.224Z,46.17
2022-08-17T13:29:53.895Z,47.87
2022-08-17T13:32:36.452Z,49.99
2022-08-17T13:35:33.422Z,52.01
2022-08-17T13:38:38.111Z,54.20
2022-08-17T13:41:07.625Z,54.97
2022-08-17T13:43:45.290Z,57.58
2022-08-17T13:46:25.428Z,55.66
2022-08-17T13:49:21.170Z,55.64
2022-08-17T13:51:52.232Z,55.77
2022-08-17T13:54:35.167Z,51.71
2022-08-17T13:57:06.422Z,51.00
2022-08-17T13:59:54.412Z,52.61
2022-08-17T14:02:26.100Z,51.71
2022-08-17T14:04:58.727Z,50.26
2022-08-17T14:07:32.227Z,48.44
2022-08-17T14:10:08.381Z,48.59
2022-08-17T14:12:40.440Z,49.46
2022-08-17T14:15:16.223Z,51.06
2022-08-17T14:17:44.886Z,50.41
2022-08-17T14:20:13.906Z,49.20
2022-08-17T14:22:54.057Z,48.56
2022-08-17T14:25:26.891Z,49.50
2022-08-17T14:27:59.834Z,51.22
2022-08-17T14:30:29.870Z,51.56
2022-08-17T14:32:59.358Z,52.61
2022-08-17T14:35:34.595Z,51.79
2022-08-17T14:38:06.223Z,50.34
2022-08-17T14:40:36.341Z,50.98
2022-08-17T14:43:05.659Z,52.74
2022-08-17T14:45:33.769Z,52.98
2022-08-17T14:48:08.022Z,53.45
2022-08-17T14:50:41.890Z,54.65
2022-08-17T14:53:13.942Z,55.24
2022-08-17T14:55:43.741Z,56.18
2022-08-17T14:58:15.332Z,58.71
2022-08-17T15:00:53.206Z,59.40
2022-08-17T15:03:21.654Z,58.69
2022-08-17T15:05:49.853Z,59.63
2022-08-17T15:08:19.891Z,60.65
2022-08-17T15:10:54.188Z,59.90
2022-08-17T15:13:26.115Z,60.41
2022-08-17T15:15:54.466Z,60.53
2022-08-17T15:18:25.177Z,60.07
2022-08-17T15:20:54.990Z,60.05
2022-08-17T15:23:29.164Z,62.17
2022-08-17T15:25:57.944Z,64.34
2022-08-17T15:28:26.545Z,66.24
2022-08-17T15:30:55.366Z,67.89
2022-08-17T15:33:30.771Z,69.35
2022-08-17T15:36:13.700Z,71.47
2022-08-17T15:38:46.277Z,74.35
2022-08-17T15:41:18.635Z,77.51
2022-08-17T15:43:50.260Z,79.90
2022-08-17T15:46:21.187Z,82.17
2022-08-17T15:48:52.112Z,84.58
2022-08-17T15:51:24.281Z,86.99
2022-08-17T15:54:19.368Z,89.70
2022-08-17T15:56:51.261Z,94.99
2022-08-17T15:59:19.604Z,95.85
2022-08-17T16:03:01.456Z,96.26
2022-08-17T16:04:45.062Z,99.27
2022-08-17T16:07:26.483Z,100.00
2022-08-17T16:09:56.453Z,100.00
2022-08-17T16:12:25.293Z,100.00
2022-08-17T16:14:56.887Z,100.00
2022-08-17T16:17:38.555Z,100.00
2022-08-17T16:20:09.737Z,100.00
2022-08-17T16:22:50.606Z,100.00
2022-08-17T16:25:53.110Z,100.00
2022-08-17T16:28:16.751Z,100.00
2022-08-17T16:30:45.767Z,100.00
2022-08-17T16:33:15.325Z,100.00
2022-08-17T16:35:43.510Z,100.00
2022-08-17T16:38:12.648Z,100.00
2022-08-17T16:40:42.989Z,100.00
2022-08-17T16:43:12.152Z,100.00
2022-08-17T16:45:41.208Z,100.00
2022-08-17T16:48:09.869Z,100.00
2022-08-17T16:50:38.225Z,100.00
2022-08-17T16:53:17.256Z,100.00
2022-08-17T16:55:52.038Z,100.00
2022-08-17T16:58:20.476Z,100.00
2022-08-17T17:00:48.908Z,100.00
2022-08-17T17:03:24.988Z,100.00
2022-08-17T17:06:16.440Z,100.00
2022-08-17T17:08:56.303Z,100.00
2022-08-17T17:11:44.638Z,100.00
2022-08-17T17:14:31.868Z,100.00
2022-08-17T17:17:07.187Z,100.00
2022-08-17T17:19:50.887Z,100.00
2022-08-17T17:22:22.134Z,100.00
2022-08-17T17:25:18.075Z,100.00
2022-08-17T17:28:15.192Z,100.00
2022-08-17T17:30:51.949Z,100.00
2022-08-17T17:33:27.409Z,100.00
2022-08-17T17:36:08.488Z,100.00
2022-08-17T17:38:45.855Z,100.00
2022-08-17T17:41:26.321Z,100.00
2022-08-17T17:44:03.384Z,100.00
2022-08-17T17:46:37.561Z,100.00
2022-08-17T17:49:11.307Z,100.00
2022-08-17T17:51:55.722Z,100.00
2022-08-17T17:55:13.300Z,100.00
2022-08-17T17:57:55.916Z,100.00
2022-08-17T18:00:35.027Z,100.00
2022-08-17T18:03:35.567Z,100.00
2022-08-17T18:06:34.158Z,100.00
2022-08-17T18:09:19.458Z,100.00
2022-08-17T18:12:23.937Z,100.00
2022-08-17T18:15:08.579Z,100.00
2022-08-17T18:17:36.839Z,100.00
2022-08-17T18:20:07.207Z,100.00
2022-08-17T18:22:35.404Z,100.00
2022-08-17T18:25:45.110Z,100.00
2022-08-17T18:28:31.001Z,100.00
2022-08-17T18:31:18.835Z,100.00
2022-08-17T18:33:50.849Z,100.00
2022-08-17T18:36:33.155Z,100.00
2022-08-17T18:39:17.532Z,100.00
2022-08-17T18:41:49.094Z,100.00
2022-08-17T18:44:43.115Z,100.00
2022-08-17T18:47:26.846Z,100.00
2022-08-17T18:49:59.364Z,100.00
2022-08-17T18:52:29.044Z,100.00
2022-08-17T18:55:13.067Z,100.00
2022-08-17T18:57:45.418Z,100.00
2022-08-17T19:00:18.423Z,100.00
2022-08-17T19:02:56.339Z,100.00
2022-08-17T19:05:36.837Z,100.00
2022-08-17T19:08:29.659Z,100.00
2022-08-17T19:11:01.665Z,100.00
2022-08-17T19:13:38.853Z,100.00
2022-08-17T19:16:21.863Z,100.00
2022-08-17T19:19:02.846Z,100.00
2022-08-17T19:21:36.554Z,100.00
2022-08-17T19:24:26.615Z,100.00
2022-08-17T19:27:16.110Z,100.00
2022-08-17T19:30:07.494Z,100.00
2022-08-17T19:32:36.269Z,100.00
2022-08-17T19:35:07.642Z,100.00
2022-08-17T19:37:35.710Z,100.00
2022-08-17T19:40:52.351Z,100.00
2022-08-17T19:43:21.072Z,100.00
2022-08-17T19:46:06.187Z,100.00
2022-08-17T19:48:45.731Z,100.00
2022-08-17T19:51:31.963Z,100.00
2022-08-17T19:54:25.722Z,100.00
2022-08-17T19:57:01.961Z,100.00
2022-08-17T19:59:48.389Z,100.00
2022-08-17T20:02:33.743Z,100.00
2022-08-17T20:05:15.999Z,100.00
2022-08-17T20:07:51.383Z,100.00
2022-08-17T20:10:34.375Z,100.00
2022-08-17T20:13:09.455Z,100.00
2022-08-17T20:15:42.137Z,100.00
2022-08-17T20:18:37.853Z,100.00
2022-08-17T20:21:22.051Z,100.00
2022-08-17T20:24:06.371Z,100.00
2022-08-17T20:26:58.954Z,100.00
2022-08-17T20:29:40.300Z,100.00
2022-08-17T20:32:18.995Z,100.00
2022-08-17T20:34:48.061Z,100.00
2022-08-17T20:37:16.112Z,100.00
2022-08-17T20:40:06.581Z,100.00
2022-08-17T20:42:36.642Z,100.00
2022-08-17T20:45:26.542Z,100.00
2022-08-17T20:48:33.353Z,100.00
2022-08-17T20:50:52.648Z,100.00
2022-08-17T20:53:49.451Z,100.00
2022-08-17T20:56:45.112Z,100.00
2022-08-17T20:59:30.589Z,100.00
2022-08-17T21:02:17.540Z,100.00
2022-08-17T21:04:50.078Z,100.00
2022-08-17T21:07:24.180Z,100.00
2022-08-17T21:09:52.862Z,100.00
2022-08-17T21:13:08.281Z,100.00
2022-08-17T21:15:52.602Z,100.00
2022-08-17T21:18:38.972Z,100.00
2022-08-17T21:21:59.510Z,100.00
2022-08-17T21:24:57.876Z,100.00
2022-08-17T21:27:53.833Z,100.00
2022-08-17T21:30:27.913Z,100.00
2022-08-17T21:33:12.272Z,100.00
2022-08-17T21:36:04.854Z,100.00
2022-08-17T21:39:01.293Z,100.00
2022-08-17T21:41:33.899Z,100.00
2022-08-17T21:44:37.020Z,100.00
2022-08-17T21:47:14.765Z,100.00
2022-08-17T21:49:43.770Z,100.00
2022-08-17T21:52:17.836Z,100.00
2022-08-17T21:54:58.340Z,100.00
2022-08-17T21:57:29.046Z,100.00
2022-08-17T22:00:02.760Z,100.00
2022-08-17T22:02:41.968Z,100.00
2022-08-17T22:05:14.737Z,100.00
2022-08-17T22:07:51.047Z,100.00
2022-08-17T22:11:03.283Z,100.00
2022-08-17T22:13:31.564Z,100.00
2022-08-17T22:16:15.448Z,100.00
2022-08-17T22:18:54.393Z,100.00
2022-08-17T22:21:22.769Z,100.00
2022-08-17T22:24:06.973Z,100.00
2022-08-17T22:27:07.684Z,100.00
2022-08-17T22:29:47.624Z,100.00
2022-08-17T22:32:35.688Z,100.00
2022-08-17T22:35:34.886Z,100.00
2022-08-17T22:38:18.326Z,100.00
2022-08-17T22:40:46.367Z,100.00
2022-08-17T22:43:15.466Z,100.00
2022-08-17T22:45:51.601Z,100.00
2022-08-17T22:48:39.384Z,100.00
2022-08-17T22:51:13.483Z,100.00
2022-08-17T22:54:34.532Z,100.00
2022-08-17T22:57:23.463Z,100.00
2022-08-17T22:59:54.602Z,100.00
2022-08-17T23:02:25.501Z,100.00
2022-08-17T23:05:13.519Z,100.00
2022-08-17T23:07:43.301Z,100.00
2022-08-17T23:10:12.695Z,100.00
2022-08-17T23:12:41.461Z,100.00
2022-08-17T23:15:14.472Z,100.00
2022-08-17T23:17:45.361Z,100.00
2022-08-17T23:20:16.305Z,100.00
2022-08-17T23:22:51.522Z,100.00
2022-08-17T23:25:33.597Z,100.00
2022-08-17T23:28:04.823Z,100.00
2022-08-17T23:30:37.114Z,100.00
2022-08-17T23:33:14.456Z,100.00
2022-08-17T23:35:44.187Z,100.00
2022-08-17T23:38:13.196Z,100.00
2022-08-17T23:40:41.337Z,100.00
2022-08-17T23:43:25.306Z,100.00
2022-08-17T23:45:55.162Z,100.00
2022-08-17T23:48:27.827Z,100.00
2022-08-17T23:51:16.757Z,100.00
2022-08-17T23:53:48.358Z,100.00
2022-08-17T23:56:19.634Z,100.00
2022-08-17T23:58:48.273Z,100.00
